sensor_id;sensor_type;location;lat;lon;timestamp;P1;durP1;ratioP1;P2;durP2;ratioP2
74503;SDS011;62988;55.776;37.544;2024-02-04T00:01:17;5.60;;;3.07;;
74503;SDS011;62988;55.776;37.544;2024-02-04T00:03:43;8.23;;;3.37;;
74503;SDS011;62988;55.776;37.544;2024-02-04T00:06:08;7.43;;;3.10;;
74503;SDS011;62988;55.776;37.544;2024-02-04T00:08:33;9.03;;;3.80;;
74503;SDS011;62988;55.776;37.544;2024-02-04T00:10:58;7.20;;;3.27;;
74503;SDS011;62988;55.776;37.544;2024-02-04T00:13:24;8.10;;;3.27;;
74503;SDS011;62988;55.776;37.544;2024-02-04T00:15:49;6.23;;;3.03;;
74503;SDS011;62988;55.776;37.544;2024-02-04T00:18:14;10.00;;;3.83;;
74503;SDS011;62988;55.776;37.544;2024-02-04T00:20:40;8.50;;;3.97;;
74503;SDS011;62988;55.776;37.544;2024-02-04T00:23:05;10.00;;;3.73;;
74503;SDS011;62988;55.776;37.544;2024-02-04T00:25:31;8.33;;;3.80;;
74503;SDS011;62988;55.776;37.544;2024-02-04T00:27:56;12.55;;;3.72;;
74503;SDS011;62988;55.776;37.544;2024-02-04T00:30:24;6.68;;;3.10;;
74503;SDS011;62988;55.776;37.544;2024-02-04T00:32:49;8.43;;;2.80;;
74503;SDS011;62988;55.776;37.544;2024-02-04T00:35:14;6.63;;;2.80;;
74503;SDS011;62988;55.776;37.544;2024-02-04T00:37:40;7.43;;;3.23;;
74503;SDS011;62988;55.776;37.544;2024-02-04T00:40:05;8.30;;;3.30;;
74503;SDS011;62988;55.776;37.544;2024-02-04T00:42:30;7.00;;;2.72;;
74503;SDS011;62988;55.776;37.544;2024-02-04T00:44:56;7.63;;;3.30;;
74503;SDS011;62988;55.776;37.544;2024-02-04T00:47:21;6.50;;;3.33;;
74503;SDS011;62988;55.776;37.544;2024-02-04T00:49:46;9.10;;;3.57;;
74503;SDS011;62988;55.776;37.544;2024-02-04T00:52:12;8.30;;;3.08;;
74503;SDS011;62988;55.776;37.544;2024-02-04T00:54:37;5.63;;;2.57;;
74503;SDS011;62988;55.776;37.544;2024-02-04T00:57:02;4.70;;;2.37;;
74503;SDS011;62988;55.776;37.544;2024-02-04T00:59:28;6.93;;;3.07;;
74503;SDS011;62988;55.776;37.544;2024-02-04T01:01:53;4.63;;;2.60;;
74503;SDS011;62988;55.776;37.544;2024-02-04T01:04:20;7.65;;;2.95;;
74503;SDS011;62988;55.776;37.544;2024-02-04T01:06:48;5.05;;;2.67;;
74503;SDS011;62988;55.776;37.544;2024-02-04T01:09:13;7.00;;;2.23;;
74503;SDS011;62988;55.776;37.544;2024-02-04T01:11:38;4.20;;;2.00;;
74503;SDS011;62988;55.776;37.544;2024-02-04T01:14:04;4.60;;;2.80;;
74503;SDS011;62988;55.776;37.544;2024-02-04T01:16:29;6.07;;;2.90;;
74503;SDS011;62988;55.776;37.544;2024-02-04T01:18:54;7.40;;;2.57;;
74503;SDS011;62988;55.776;37.544;2024-02-04T01:21:19;4.60;;;2.50;;
74503;SDS011;62988;55.776;37.544;2024-02-04T01:23:45;5.47;;;2.70;;
74503;SDS011;62988;55.776;37.544;2024-02-04T01:26:10;5.83;;;2.57;;
74503;SDS011;62988;55.776;37.544;2024-02-04T01:28:35;5.70;;;2.47;;
74503;SDS011;62988;55.776;37.544;2024-02-04T01:31:01;8.33;;;2.80;;
74503;SDS011;62988;55.776;37.544;2024-02-04T01:33:26;4.80;;;2.27;;
74503;SDS011;62988;55.776;37.544;2024-02-04T01:35:51;6.07;;;2.80;;
74503;SDS011;62988;55.776;37.544;2024-02-04T01:38:17;6.30;;;2.80;;
74503;SDS011;62988;55.776;37.544;2024-02-04T01:40:43;3.87;;;2.17;;
74503;SDS011;62988;55.776;37.544;2024-02-04T01:43:08;6.40;;;2.47;;
74503;SDS011;62988;55.776;37.544;2024-02-04T01:45:33;7.60;;;3.20;;
74503;SDS011;62988;55.776;37.544;2024-02-04T01:47:59;5.00;;;2.40;;
74503;SDS011;62988;55.776;37.544;2024-02-04T01:50:24;5.20;;;2.50;;
74503;SDS011;62988;55.776;37.544;2024-02-04T01:52:49;6.07;;;3.00;;
74503;SDS011;62988;55.776;37.544;2024-02-04T01:55:16;6.82;;;2.80;;
74503;SDS011;62988;55.776;37.544;2024-02-04T01:57:41;6.47;;;3.00;;
74503;SDS011;62988;55.776;37.544;2024-02-04T02:00:07;6.60;;;2.78;;
74503;SDS011;62988;55.776;37.544;2024-02-04T02:02:34;6.63;;;2.67;;
74503;SDS011;62988;55.776;37.544;2024-02-04T02:05:02;4.18;;;2.08;;
74503;SDS011;62988;55.776;37.544;2024-02-04T02:07:28;9.47;;;2.93;;
74503;SDS011;62988;55.776;37.544;2024-02-04T02:09:53;5.63;;;2.70;;
74503;SDS011;62988;55.776;37.544;2024-02-04T02:12:25;4.10;;;2.50;;
74503;SDS011;62988;55.776;37.544;2024-02-04T02:14:59;5.90;;;2.50;;
74503;SDS011;62988;55.776;37.544;2024-02-04T02:17:37;4.70;;;2.30;;
74503;SDS011;62988;55.776;37.544;2024-02-04T02:22:50;4.22;;;2.30;;
74503;SDS011;62988;55.776;37.544;2024-02-04T02:25:16;4.88;;;2.70;;
74503;SDS011;62988;55.776;37.544;2024-02-04T02:27:50;4.32;;;2.20;;
74503;SDS011;62988;55.776;37.544;2024-02-04T02:30:16;3.47;;;1.90;;
74503;SDS011;62988;55.776;37.544;2024-02-04T02:32:42;4.10;;;2.10;;
74503;SDS011;62988;55.776;37.544;2024-02-04T02:35:08;5.13;;;2.42;;
74503;SDS011;62988;55.776;37.544;2024-02-04T02:37:36;5.10;;;1.77;;
74503;SDS011;62988;55.776;37.544;2024-02-04T02:40:04;5.28;;;2.35;;
74503;SDS011;62988;55.776;37.544;2024-02-04T02:42:31;3.35;;;2.00;;
74503;SDS011;62988;55.776;37.544;2024-02-04T02:44:57;3.85;;;1.95;;
74503;SDS011;62988;55.776;37.544;2024-02-04T02:47:23;4.45;;;2.55;;
74503;SDS011;62988;55.776;37.544;2024-02-04T02:49:51;5.10;;;2.42;;
74503;SDS011;62988;55.776;37.544;2024-02-04T02:52:17;5.53;;;2.72;;
74503;SDS011;62988;55.776;37.544;2024-02-04T02:54:42;3.72;;;1.80;;
74503;SDS011;62988;55.776;37.544;2024-02-04T02:57:07;3.20;;;1.70;;
74503;SDS011;62988;55.776;37.544;2024-02-04T02:59:33;2.37;;;1.30;;
74503;SDS011;62988;55.776;37.544;2024-02-04T03:01:59;3.40;;;1.10;;
74503;SDS011;62988;55.776;37.544;2024-02-04T03:04:24;2.70;;;1.00;;
74503;SDS011;62988;55.776;37.544;2024-02-04T03:06:50;1.77;;;0.70;;
74503;SDS011;62988;55.776;37.544;2024-02-04T03:09:15;2.50;;;1.10;;
74503;SDS011;62988;55.776;37.544;2024-02-04T03:11:40;1.48;;;0.75;;
74503;SDS011;62988;55.776;37.544;2024-02-04T03:14:06;2.40;;;1.00;;
74503;SDS011;62988;55.776;37.544;2024-02-04T03:16:31;1.50;;;0.73;;
74503;SDS011;62988;55.776;37.544;2024-02-04T03:18:56;1.97;;;0.57;;
74503;SDS011;62988;55.776;37.544;2024-02-04T03:21:21;3.63;;;1.03;;
74503;SDS011;62988;55.776;37.544;2024-02-04T03:23:47;2.13;;;0.80;;
74503;SDS011;62988;55.776;37.544;2024-02-04T03:26:15;1.67;;;0.73;;
74503;SDS011;62988;55.776;37.544;2024-02-04T03:28:41;2.13;;;0.80;;
74503;SDS011;62988;55.776;37.544;2024-02-04T03:31:06;2.03;;;0.70;;
74503;SDS011;62988;55.776;37.544;2024-02-04T03:33:32;2.70;;;0.77;;
74503;SDS011;62988;55.776;37.544;2024-02-04T03:35:57;1.87;;;0.60;;
74503;SDS011;62988;55.776;37.544;2024-02-04T03:38:22;1.30;;;0.50;;
74503;SDS011;62988;55.776;37.544;2024-02-04T03:40:48;0.90;;;0.30;;
74503;SDS011;62988;55.776;37.544;2024-02-04T03:43:14;1.30;;;0.50;;
74503;SDS011;62988;55.776;37.544;2024-02-04T03:45:40;1.10;;;0.50;;
74503;SDS011;62988;55.776;37.544;2024-02-04T03:48:05;2.53;;;0.50;;
74503;SDS011;62988;55.776;37.544;2024-02-04T03:50:30;2.38;;;0.65;;
74503;SDS011;62988;55.776;37.544;2024-02-04T03:52:56;5.77;;;1.10;;
74503;SDS011;62988;55.776;37.544;2024-02-04T03:55:21;1.23;;;0.50;;
74503;SDS011;62988;55.776;37.544;2024-02-04T03:57:47;0.90;;;0.40;;
74503;SDS011;62988;55.776;37.544;2024-02-04T04:00:12;1.23;;;0.35;;
74503;SDS011;62988;55.776;37.544;2024-02-04T04:02:38;1.77;;;0.20;;
74503;SDS011;62988;55.776;37.544;2024-02-04T04:05:03;1.10;;;0.30;;
74503;SDS011;62988;55.776;37.544;2024-02-04T04:07:28;1.05;;;0.40;;
74503;SDS011;62988;55.776;37.544;2024-02-04T04:09:54;0.63;;;0.33;;
74503;SDS011;62988;55.776;37.544;2024-02-04T04:12:19;2.87;;;0.33;;
74503;SDS011;62988;55.776;37.544;2024-02-04T04:14:44;1.20;;;0.33;;
74503;SDS011;62988;55.776;37.544;2024-02-04T04:17:10;1.00;;;0.40;;
74503;SDS011;62988;55.776;37.544;2024-02-04T04:19:35;1.50;;;0.23;;
74503;SDS011;62988;55.776;37.544;2024-02-04T04:22:02;0.90;;;0.30;;
74503;SDS011;62988;55.776;37.544;2024-02-04T04:24:27;2.35;;;0.40;;
74503;SDS011;62988;55.776;37.544;2024-02-04T04:26:52;0.50;;;0.10;;
74503;SDS011;62988;55.776;37.544;2024-02-04T04:29:18;1.75;;;0.57;;
74503;SDS011;62988;55.776;37.544;2024-02-04T04:31:43;1.73;;;0.40;;
74503;SDS011;62988;55.776;37.544;2024-02-04T04:34:08;1.23;;;0.40;;
74503;SDS011;62988;55.776;37.544;2024-02-04T04:36:34;0.90;;;0.30;;
74503;SDS011;62988;55.776;37.544;2024-02-04T04:38:59;0.90;;;0.25;;
74503;SDS011;62988;55.776;37.544;2024-02-04T04:41:25;0.77;;;0.23;;
74503;SDS011;62988;55.776;37.544;2024-02-04T04:43:50;1.00;;;0.30;;
74503;SDS011;62988;55.776;37.544;2024-02-04T04:46:15;1.77;;;0.30;;
74503;SDS011;62988;55.776;37.544;2024-02-04T04:48:41;0.90;;;0.40;;
74503;SDS011;62988;55.776;37.544;2024-02-04T04:51:10;1.10;;;0.40;;
74503;SDS011;62988;55.776;37.544;2024-02-04T04:53:36;1.02;;;0.60;;
74503;SDS011;62988;55.776;37.544;2024-02-04T04:56:01;0.90;;;0.30;;
74503;SDS011;62988;55.776;37.544;2024-02-04T04:58:27;0.90;;;0.40;;
74503;SDS011;62988;55.776;37.544;2024-02-04T05:00:52;0.33;;;0.10;;
74503;SDS011;62988;55.776;37.544;2024-02-04T05:03:17;2.37;;;0.40;;
74503;SDS011;62988;55.776;37.544;2024-02-04T05:05:42;4.10;;;0.30;;
74503;SDS011;62988;55.776;37.544;2024-02-04T05:08:08;0.17;;;0.10;;
74503;SDS011;62988;55.776;37.544;2024-02-04T05:10:33;2.47;;;0.20;;
74503;SDS011;62988;55.776;37.544;2024-02-04T05:12:59;0.57;;;0.20;;
74503;SDS011;62988;55.776;37.544;2024-02-04T05:15:24;3.10;;;0.33;;
74503;SDS011;62988;55.776;37.544;2024-02-04T05:17:50;0.95;;;0.22;;
74503;SDS011;62988;55.776;37.544;2024-02-04T05:20:15;0.57;;;0.20;;
74503;SDS011;62988;55.776;37.544;2024-02-04T05:22:41;1.73;;;0.60;;
74503;SDS011;62988;55.776;37.544;2024-02-04T05:25:06;1.23;;;0.30;;
74503;SDS011;62988;55.776;37.544;2024-02-04T05:27:31;0.85;;;0.20;;
74503;SDS011;62988;55.776;37.544;2024-02-04T05:29:57;2.50;;;0.50;;
74503;SDS011;62988;55.776;37.544;2024-02-04T05:32:22;0.50;;;0.20;;
74503;SDS011;62988;55.776;37.544;2024-02-04T05:34:47;2.40;;;0.40;;
74503;SDS011;62988;55.776;37.544;2024-02-04T05:37:13;0.95;;;0.20;;
74503;SDS011;62988;55.776;37.544;2024-02-04T05:39:38;1.10;;;0.30;;
74503;SDS011;62988;55.776;37.544;2024-02-04T05:42:03;0.50;;;0.20;;
74503;SDS011;62988;55.776;37.544;2024-02-04T05:44:29;2.15;;;0.43;;
74503;SDS011;62988;55.776;37.544;2024-02-04T05:46:54;1.47;;;0.60;;
74503;SDS011;62988;55.776;37.544;2024-02-04T05:49:19;0.93;;;0.20;;
74503;SDS011;62988;55.776;37.544;2024-02-04T05:51:45;0.73;;;0.27;;
74503;SDS011;62988;55.776;37.544;2024-02-04T05:54:10;1.30;;;0.40;;
74503;SDS011;62988;55.776;37.544;2024-02-04T05:56:35;1.30;;;0.40;;
74503;SDS011;62988;55.776;37.544;2024-02-04T05:59:01;1.60;;;0.20;;
74503;SDS011;62988;55.776;37.544;2024-02-04T06:01:26;8.77;;;1.00;;
74503;SDS011;62988;55.776;37.544;2024-02-04T06:03:51;0.70;;;0.20;;
74503;SDS011;62988;55.776;37.544;2024-02-04T06:06:17;1.17;;;0.43;;
74503;SDS011;62988;55.776;37.544;2024-02-04T06:08:45;0.95;;;0.30;;
74503;SDS011;62988;55.776;37.544;2024-02-04T06:11:10;0.80;;;0.20;;
74503;SDS011;62988;55.776;37.544;2024-02-04T06:13:36;0.68;;;0.25;;
74503;SDS011;62988;55.776;37.544;2024-02-04T06:16:01;1.15;;;0.28;;
74503;SDS011;62988;55.776;37.544;2024-02-04T06:18:27;1.20;;;0.40;;
74503;SDS011;62988;55.776;37.544;2024-02-04T06:20:52;1.15;;;0.45;;
74503;SDS011;62988;55.776;37.544;2024-02-04T06:23:18;1.43;;;0.70;;
74503;SDS011;62988;55.776;37.544;2024-02-04T06:25:44;1.15;;;0.40;;
74503;SDS011;62988;55.776;37.544;2024-02-04T06:28:10;0.83;;;0.30;;
74503;SDS011;62988;55.776;37.544;2024-02-04T06:30:35;0.82;;;0.30;;
74503;SDS011;62988;55.776;37.544;2024-02-04T06:33:01;0.95;;;0.30;;
74503;SDS011;62988;55.776;37.544;2024-02-04T06:35:27;1.08;;;0.32;;
74503;SDS011;62988;55.776;37.544;2024-02-04T06:37:53;0.93;;;0.40;;
74503;SDS011;62988;55.776;37.544;2024-02-04T06:40:18;0.90;;;0.20;;
74503;SDS011;62988;55.776;37.544;2024-02-04T06:42:43;0.50;;;0.10;;
74503;SDS011;62988;55.776;37.544;2024-02-04T06:45:09;1.02;;;0.30;;
74503;SDS011;62988;55.776;37.544;2024-02-04T06:47:35;0.60;;;0.20;;
74503;SDS011;62988;55.776;37.544;2024-02-04T06:50:00;0.70;;;0.27;;
74503;SDS011;62988;55.776;37.544;2024-02-04T06:52:28;1.25;;;0.35;;
74503;SDS011;62988;55.776;37.544;2024-02-04T06:54:53;0.40;;;0.10;;
74503;SDS011;62988;55.776;37.544;2024-02-04T06:57:19;0.57;;;0.20;;
74503;SDS011;62988;55.776;37.544;2024-02-04T06:59:44;2.47;;;0.40;;
74503;SDS011;62988;55.776;37.544;2024-02-04T07:02:09;1.97;;;0.20;;
74503;SDS011;62988;55.776;37.544;2024-02-04T07:04:35;0.73;;;0.30;;
74503;SDS011;62988;55.776;37.544;2024-02-04T07:07:00;0.93;;;0.30;;
74503;SDS011;62988;55.776;37.544;2024-02-04T07:09:25;0.57;;;0.30;;
74503;SDS011;62988;55.776;37.544;2024-02-04T07:11:50;0.57;;;0.20;;
74503;SDS011;62988;55.776;37.544;2024-02-04T07:14:16;0.30;;;0.10;;
74503;SDS011;62988;55.776;37.544;2024-02-04T07:16:41;0.60;;;0.30;;
74503;SDS011;62988;55.776;37.544;2024-02-04T07:19:07;0.98;;;0.38;;
74503;SDS011;62988;55.776;37.544;2024-02-04T07:21:32;0.40;;;0.15;;
74503;SDS011;62988;55.776;37.544;2024-02-04T07:23:58;0.90;;;0.20;;
74503;SDS011;62988;55.776;37.544;2024-02-04T07:26:23;0.20;;;0.07;;
74503;SDS011;62988;55.776;37.544;2024-02-04T07:28:48;0.20;;;0.10;;
74503;SDS011;62988;55.776;37.544;2024-02-04T07:31:14;0.73;;;0.20;;
74503;SDS011;62988;55.776;37.544;2024-02-04T07:33:40;0.90;;;0.22;;
74503;SDS011;62988;55.776;37.544;2024-02-04T07:36:05;0.55;;;0.10;;
74503;SDS011;62988;55.776;37.544;2024-02-04T07:38:31;0.73;;;0.13;;
74503;SDS011;62988;55.776;37.544;2024-02-04T07:40:56;1.80;;;0.53;;
74503;SDS011;62988;55.776;37.544;2024-02-04T07:43:24;0.38;;;0.20;;
74503;SDS011;62988;55.776;37.544;2024-02-04T07:45:49;0.73;;;0.30;;
74503;SDS011;62988;55.776;37.544;2024-02-04T07:48:14;0.77;;;0.40;;
74503;SDS011;62988;55.776;37.544;2024-02-04T07:50:39;0.63;;;0.10;;
74503;SDS011;62988;55.776;37.544;2024-02-04T07:53:05;0.90;;;0.30;;
74503;SDS011;62988;55.776;37.544;2024-02-04T07:55:30;0.73;;;0.10;;
74503;SDS011;62988;55.776;37.544;2024-02-04T07:57:55;1.53;;;0.30;;
74503;SDS011;62988;55.776;37.544;2024-02-04T08:00:21;0.50;;;0.10;;
74503;SDS011;62988;55.776;37.544;2024-02-04T08:02:46;0.90;;;0.20;;
74503;SDS011;62988;55.776;37.544;2024-02-04T08:05:12;1.05;;;0.55;;
74503;SDS011;62988;55.776;37.544;2024-02-04T08:07:37;1.10;;;0.30;;
74503;SDS011;62988;55.776;37.544;2024-02-04T08:10:03;0.80;;;0.22;;
74503;SDS011;62988;55.776;37.544;2024-02-04T08:12:28;1.05;;;0.35;;
74503;SDS011;62988;55.776;37.544;2024-02-04T08:14:54;1.90;;;0.43;;
74503;SDS011;62988;55.776;37.544;2024-02-04T08:17:19;2.67;;;0.50;;
74503;SDS011;62988;55.776;37.544;2024-02-04T08:19:44;1.83;;;0.30;;
74503;SDS011;62988;55.776;37.544;2024-02-04T08:22:10;2.70;;;0.23;;
74503;SDS011;62988;55.776;37.544;2024-02-04T08:24:35;1.80;;;0.37;;
74503;SDS011;62988;55.776;37.544;2024-02-04T08:27:01;1.77;;;0.25;;
74503;SDS011;62988;55.776;37.544;2024-02-04T08:29:26;1.17;;;0.30;;
74503;SDS011;62988;55.776;37.544;2024-02-04T08:31:52;1.13;;;0.27;;
74503;SDS011;62988;55.776;37.544;2024-02-04T08:34:17;1.95;;;0.40;;
74503;SDS011;62988;55.776;37.544;2024-02-04T08:36:47;1.58;;;0.30;;
74503;SDS011;62988;55.776;37.544;2024-02-04T08:39:13;2.10;;;0.60;;
74503;SDS011;62988;55.776;37.544;2024-02-04T08:41:39;1.60;;;0.20;;
74503;SDS011;62988;55.776;37.544;2024-02-04T08:44:04;3.23;;;0.30;;
74503;SDS011;62988;55.776;37.544;2024-02-04T08:46:29;3.57;;;0.40;;
74503;SDS011;62988;55.776;37.544;2024-02-04T08:48:55;2.03;;;0.57;;
74503;SDS011;62988;55.776;37.544;2024-02-04T08:51:20;3.80;;;0.77;;
74503;SDS011;62988;55.776;37.544;2024-02-04T08:53:45;2.00;;;0.60;;
74503;SDS011;62988;55.776;37.544;2024-02-04T08:56:10;2.03;;;0.50;;
74503;SDS011;62988;55.776;37.544;2024-02-04T08:58:36;3.83;;;0.70;;
74503;SDS011;62988;55.776;37.544;2024-02-04T09:01:04;3.35;;;1.10;;
74503;SDS011;62988;55.776;37.544;2024-02-04T09:03:30;3.28;;;0.70;;
74503;SDS011;62988;55.776;37.544;2024-02-04T09:05:56;4.85;;;0.90;;
74503;SDS011;62988;55.776;37.544;2024-02-04T09:08:21;2.95;;;0.75;;
74503;SDS011;62988;55.776;37.544;2024-02-04T09:10:47;3.87;;;1.43;;
74503;SDS011;62988;55.776;37.544;2024-02-04T09:13:12;1.73;;;0.60;;
74503;SDS011;62988;55.776;37.544;2024-02-04T09:15:37;3.70;;;0.73;;
74503;SDS011;62988;55.776;37.544;2024-02-04T09:18:02;2.07;;;0.57;;
74503;SDS011;62988;55.776;37.544;2024-02-04T09:20:28;4.55;;;0.80;;
74503;SDS011;62988;55.776;37.544;2024-02-04T09:22:53;4.33;;;0.83;;
74503;SDS011;62988;55.776;37.544;2024-02-04T09:25:19;5.17;;;1.27;;
74503;SDS011;62988;55.776;37.544;2024-02-04T09:27:44;2.37;;;0.70;;
74503;SDS011;62988;55.776;37.544;2024-02-04T09:30:09;3.00;;;0.60;;
74503;SDS011;62988;55.776;37.544;2024-02-04T09:32:35;3.55;;;0.88;;
74503;SDS011;62988;55.776;37.544;2024-02-04T09:35:00;2.60;;;0.90;;
74503;SDS011;62988;55.776;37.544;2024-02-04T09:37:26;5.53;;;0.97;;
74503;SDS011;62988;55.776;37.544;2024-02-04T09:39:51;8.43;;;1.27;;
74503;SDS011;62988;55.776;37.544;2024-02-04T09:42:20;4.07;;;1.00;;
74503;SDS011;62988;55.776;37.544;2024-02-04T09:47:11;5.90;;;1.10;;
74503;SDS011;62988;55.776;37.544;2024-02-04T09:49:37;3.80;;;0.80;;
74503;SDS011;62988;55.776;37.544;2024-02-04T09:52:04;2.08;;;0.73;;
74503;SDS011;62988;55.776;37.544;2024-02-04T09:54:31;2.40;;;0.60;;
74503;SDS011;62988;55.776;37.544;2024-02-04T09:56:59;4.63;;;0.90;;
74503;SDS011;62988;55.776;37.544;2024-02-04T09:59:24;4.33;;;1.03;;
74503;SDS011;62988;55.776;37.544;2024-02-04T10:01:49;4.40;;;0.97;;
74503;SDS011;62988;55.776;37.544;2024-02-04T10:04:15;5.28;;;1.00;;
74503;SDS011;62988;55.776;37.544;2024-02-04T10:06:40;6.40;;;1.00;;
74503;SDS011;62988;55.776;37.544;2024-02-04T10:09:05;5.50;;;1.10;;
74503;SDS011;62988;55.776;37.544;2024-02-04T10:11:31;3.55;;;0.88;;
74503;SDS011;62988;55.776;37.544;2024-02-04T10:13:56;4.77;;;1.73;;
74503;SDS011;62988;55.776;37.544;2024-02-04T10:16:22;5.60;;;1.07;;
74503;SDS011;62988;55.776;37.544;2024-02-04T10:18:47;4.13;;;0.90;;
74503;SDS011;62988;55.776;37.544;2024-02-04T10:21:23;5.40;;;0.90;;
74503;SDS011;62988;55.776;37.544;2024-02-04T10:23:49;2.10;;;0.73;;
74503;SDS011;62988;55.776;37.544;2024-02-04T10:26:15;5.40;;;0.85;;
74503;SDS011;62988;55.776;37.544;2024-02-04T10:28:41;1.90;;;0.50;;
74503;SDS011;62988;55.776;37.544;2024-02-04T10:31:09;2.53;;;0.85;;
74503;SDS011;62988;55.776;37.544;2024-02-04T10:33:35;4.93;;;1.10;;
74503;SDS011;62988;55.776;37.544;2024-02-04T10:36:00;7.00;;;1.80;;
74503;SDS011;62988;55.776;37.544;2024-02-04T10:38:25;4.80;;;0.90;;
74503;SDS011;62988;55.776;37.544;2024-02-04T10:40:52;7.03;;;2.20;;
74503;SDS011;62988;55.776;37.544;2024-02-04T10:43:18;9.43;;;1.42;;
74503;SDS011;62988;55.776;37.544;2024-02-04T10:45:44;3.75;;;1.10;;
74503;SDS011;62988;55.776;37.544;2024-02-04T10:48:10;6.35;;;0.93;;
74503;SDS011;62988;55.776;37.544;2024-02-04T10:50:36;4.35;;;1.05;;
74503;SDS011;62988;55.776;37.544;2024-02-04T10:53:04;5.45;;;0.98;;
74503;SDS011;62988;55.776;37.544;2024-02-04T10:55:30;4.82;;;0.93;;
74503;SDS011;62988;55.776;37.544;2024-02-04T10:57:56;2.63;;;0.90;;
74503;SDS011;62988;55.776;37.544;2024-02-04T11:00:21;5.07;;;1.10;;
74503;SDS011;62988;55.776;37.544;2024-02-04T11:02:47;3.10;;;1.00;;
74503;SDS011;62988;55.776;37.544;2024-02-04T11:05:14;10.10;;;0.90;;
74503;SDS011;62988;55.776;37.544;2024-02-04T11:07:41;8.75;;;1.10;;
74503;SDS011;62988;55.776;37.544;2024-02-04T11:10:08;7.63;;;0.82;;
74503;SDS011;62988;55.776;37.544;2024-02-04T11:12:35;3.78;;;0.77;;
74503;SDS011;62988;55.776;37.544;2024-02-04T11:15:03;5.15;;;0.95;;
74503;SDS011;62988;55.776;37.544;2024-02-04T11:27:44;2.42;;;0.60;;
74503;SDS011;62988;55.776;37.544;2024-02-04T11:30:09;1.90;;;0.70;;
74503;SDS011;62988;55.776;37.544;2024-02-04T11:32:35;3.28;;;1.08;;
74503;SDS011;62988;55.776;37.544;2024-02-04T11:35:01;2.67;;;0.93;;
74503;SDS011;62988;55.776;37.544;2024-02-04T11:37:28;4.70;;;0.90;;
74503;SDS011;62988;55.776;37.544;2024-02-04T11:39:54;2.40;;;0.45;;
74503;SDS011;62988;55.776;37.544;2024-02-04T11:42:22;4.38;;;0.55;;
74503;SDS011;62988;55.776;37.544;2024-02-04T11:44:48;4.82;;;0.70;;
74503;SDS011;62988;55.776;37.544;2024-02-04T11:47:23;2.38;;;0.73;;
74503;SDS011;62988;55.776;37.544;2024-02-04T11:49:55;3.60;;;0.77;;
74503;SDS011;62988;55.776;37.544;2024-02-04T11:52:21;3.40;;;0.77;;
74503;SDS011;62988;55.776;37.544;2024-02-04T11:54:46;1.67;;;0.63;;
74503;SDS011;62988;55.776;37.544;2024-02-04T11:57:12;6.45;;;0.90;;
74503;SDS011;62988;55.776;37.544;2024-02-04T11:59:39;2.05;;;0.82;;
74503;SDS011;62988;55.776;37.544;2024-02-04T12:02:08;4.82;;;0.85;;
74503;SDS011;62988;55.776;37.544;2024-02-04T12:04:33;6.00;;;0.80;;
74503;SDS011;62988;55.776;37.544;2024-02-04T12:06:59;5.43;;;0.68;;
74503;SDS011;62988;55.776;37.544;2024-02-04T12:09:25;3.10;;;0.60;;
74503;SDS011;62988;55.776;37.544;2024-02-04T12:11:51;3.22;;;0.60;;
74503;SDS011;62988;55.776;37.544;2024-02-04T12:14:18;4.07;;;0.70;;
74503;SDS011;62988;55.776;37.544;2024-02-04T12:16:44;2.40;;;0.50;;
74503;SDS011;62988;55.776;37.544;2024-02-04T12:19:10;4.95;;;0.73;;
74503;SDS011;62988;55.776;37.544;2024-02-04T12:21:36;4.47;;;0.73;;
74503;SDS011;62988;55.776;37.544;2024-02-04T12:24:02;3.75;;;1.13;;
74503;SDS011;62988;55.776;37.544;2024-02-04T12:26:27;3.80;;;1.10;;
74503;SDS011;62988;55.776;37.544;2024-02-04T12:28:53;1.80;;;0.40;;
74503;SDS011;62988;55.776;37.544;2024-02-04T12:31:23;2.45;;;0.52;;
74503;SDS011;62988;55.776;37.544;2024-02-04T12:33:53;5.00;;;0.90;;
74503;SDS011;62988;55.776;37.544;2024-02-04T12:36:19;4.45;;;0.82;;
74503;SDS011;62988;55.776;37.544;2024-02-04T12:38:50;2.38;;;0.40;;
74503;SDS011;62988;55.776;37.544;2024-02-04T12:41:15;2.92;;;0.70;;
74503;SDS011;62988;55.776;37.544;2024-02-04T12:43:40;3.50;;;0.60;;
74503;SDS011;62988;55.776;37.544;2024-02-04T12:46:06;1.80;;;0.50;;
74503;SDS011;62988;55.776;37.544;2024-02-04T12:48:33;2.78;;;0.50;;
74503;SDS011;62988;55.776;37.544;2024-02-04T12:51:00;2.85;;;0.82;;
74503;SDS011;62988;55.776;37.544;2024-02-04T12:53:25;3.63;;;0.77;;
74503;SDS011;62988;55.776;37.544;2024-02-04T12:55:57;1.27;;;0.30;;
74503;SDS011;62988;55.776;37.544;2024-02-04T12:58:22;3.28;;;0.60;;
74503;SDS011;62988;55.776;37.544;2024-02-04T13:00:49;3.25;;;0.68;;
74503;SDS011;62988;55.776;37.544;2024-02-04T13:03:24;1.73;;;0.50;;
74503;SDS011;62988;55.776;37.544;2024-02-04T13:05:49;2.43;;;0.57;;
74503;SDS011;62988;55.776;37.544;2024-02-04T13:08:15;1.40;;;0.47;;
74503;SDS011;62988;55.776;37.544;2024-02-04T13:10:44;2.10;;;0.70;;
74503;SDS011;62988;55.776;37.544;2024-02-04T13:13:18;1.67;;;0.60;;
74503;SDS011;62988;55.776;37.544;2024-02-04T13:15:43;2.27;;;0.50;;
74503;SDS011;62988;55.776;37.544;2024-02-04T13:18:09;2.90;;;0.82;;
74503;SDS011;62988;55.776;37.544;2024-02-04T13:20:40;5.40;;;0.70;;
74503;SDS011;62988;55.776;37.544;2024-02-04T13:23:06;2.25;;;0.50;;
74503;SDS011;62988;55.776;37.544;2024-02-04T13:25:32;2.63;;;0.60;;
74503;SDS011;62988;55.776;37.544;2024-02-04T13:27:57;1.95;;;0.70;;
74503;SDS011;62988;55.776;37.544;2024-02-04T13:30:23;2.07;;;0.77;;
74503;SDS011;62988;55.776;37.544;2024-02-04T13:32:48;4.68;;;1.08;;
74503;SDS011;62988;55.776;37.544;2024-02-04T13:35:14;1.97;;;0.70;;
74503;SDS011;62988;55.776;37.544;2024-02-04T13:37:43;1.52;;;0.30;;
74503;SDS011;62988;55.776;37.544;2024-02-04T13:40:16;3.35;;;0.32;;
74503;SDS011;62988;55.776;37.544;2024-02-04T13:42:41;3.90;;;0.57;;
74503;SDS011;62988;55.776;37.544;2024-02-04T13:45:07;3.42;;;0.30;;
74503;SDS011;62988;55.776;37.544;2024-02-04T13:47:33;2.80;;;0.70;;
74503;SDS011;62988;55.776;37.544;2024-02-04T13:49:59;5.47;;;0.88;;
74503;SDS011;62988;55.776;37.544;2024-02-04T13:52:25;5.18;;;0.75;;
74503;SDS011;62988;55.776;37.544;2024-02-04T13:54:50;3.33;;;0.83;;
74503;SDS011;62988;55.776;37.544;2024-02-04T13:57:15;3.63;;;0.60;;
74503;SDS011;62988;55.776;37.544;2024-02-04T13:59:41;5.20;;;0.70;;
74503;SDS011;62988;55.776;37.544;2024-02-04T14:02:07;4.40;;;0.70;;
74503;SDS011;62988;55.776;37.544;2024-02-04T14:04:33;4.70;;;0.93;;
74503;SDS011;62988;55.776;37.544;2024-02-04T14:06:59;3.92;;;0.68;;
74503;SDS011;62988;55.776;37.544;2024-02-04T14:09:24;1.83;;;0.50;;
74503;SDS011;62988;55.776;37.544;2024-02-04T14:11:49;2.87;;;0.87;;
74503;SDS011;62988;55.776;37.544;2024-02-04T14:14:15;6.37;;;1.13;;
74503;SDS011;62988;55.776;37.544;2024-02-04T14:16:40;5.53;;;1.58;;
74503;SDS011;62988;55.776;37.544;2024-02-04T14:19:06;5.40;;;1.20;;
74503;SDS011;62988;55.776;37.544;2024-02-04T14:21:31;2.10;;;0.52;;
74503;SDS011;62988;55.776;37.544;2024-02-04T14:23:57;1.98;;;0.77;;
74503;SDS011;62988;55.776;37.544;2024-02-04T14:26:22;3.87;;;0.70;;
74503;SDS011;62988;55.776;37.544;2024-02-04T14:28:48;3.57;;;0.70;;
74503;SDS011;62988;55.776;37.544;2024-02-04T14:31:13;3.92;;;0.93;;
74503;SDS011;62988;55.776;37.544;2024-02-04T14:33:38;4.10;;;0.40;;
74503;SDS011;62988;55.776;37.544;2024-02-04T14:36:05;5.50;;;0.70;;
74503;SDS011;62988;55.776;37.544;2024-02-04T14:38:31;2.80;;;0.90;;
74503;SDS011;62988;55.776;37.544;2024-02-04T14:40:57;8.05;;;1.60;;